createdAt,value
2023-03-29T00:01:42.511Z,0.77
2023-03-29T00:04:10.206Z,1.15
2023-03-29T00:06:37.772Z,1.20
2023-03-29T00:09:06.083Z,0.75
2023-03-29T00:11:33.284Z,0.63
2023-03-29T00:13:59.838Z,0.50
2023-03-29T00:16:26.700Z,0.70
2023-03-29T00:18:53.280Z,0.63
2023-03-29T00:21:19.958Z,0.47
2023-03-29T00:23:46.610Z,0.70
2023-03-29T00:26:13.239Z,0.70
2023-03-29T00:28:39.939Z,0.40
2023-03-29T00:31:11.206Z,0.57
2023-03-29T00:33:38.830Z,0.47
2023-03-29T00:36:07.382Z,0.30
2023-03-29T00:38:34.838Z,0.40
2023-03-29T00:41:02.199Z,0.60
2023-03-29T00:43:29.080Z,0.70
2023-03-29T00:45:56.121Z,0.40
2023-03-29T00:48:27.150Z,0.57
2023-03-29T00:51:08.205Z,0.55
2023-03-29T00:53:42.637Z,0.50
2023-03-29T00:56:14.356Z,0.50
2023-03-29T00:58:55.187Z,0.50
2023-03-29T01:01:54.384Z,0.50
2023-03-29T01:04:29.469Z,0.60
2023-03-29T01:07:03.173Z,0.45
2023-03-29T01:09:33.454Z,0.52
2023-03-29T01:12:08.258Z,0.68
2023-03-29T01:14:41.994Z,0.60
2023-03-29T01:17:12.837Z,0.40
2023-03-29T01:19:50.134Z,0.50
2023-03-29T01:22:26.092Z,0.47
2023-03-29T01:25:07.198Z,0.40
2023-03-29T01:27:50.027Z,0.50
2023-03-29T01:30:23.774Z,0.52
2023-03-29T01:33:31.618Z,0.35
2023-03-29T01:36:24.852Z,0.30
2023-03-29T01:39:00.869Z,0.45
2023-03-29T01:41:41.126Z,0.50
2023-03-29T01:44:18.473Z,0.40
2023-03-29T01:46:45.388Z,0.40
2023-03-29T01:49:23.681Z,0.50
2023-03-29T01:52:06.390Z,0.30
2023-03-29T01:54:41.399Z,0.40
2023-03-29T01:57:10.572Z,0.40
2023-03-29T01:59:42.689Z,0.40
2023-03-29T02:02:14.684Z,0.60
2023-03-29T02:04:50.221Z,0.57
2023-03-29T02:07:21.257Z,0.60
2023-03-29T02:09:52.534Z,0.50
2023-03-29T02:12:20.664Z,0.82
2023-03-29T02:14:47.229Z,0.70
2023-03-29T02:17:19.868Z,0.50
2023-03-29T02:19:52.071Z,0.40
2023-03-29T02:22:33.484Z,0.50
2023-03-29T02:25:04.801Z,0.45
2023-03-29T02:27:31.773Z,0.40
2023-03-29T02:29:58.459Z,0.82
2023-03-29T02:32:50.804Z,0.93
2023-03-29T02:35:41.027Z,0.52
2023-03-29T02:38:11.384Z,0.93
2023-03-29T02:40:40.639Z,0.47
2023-03-29T02:43:09.371Z,0.50
2023-03-29T02:45:38.008Z,0.45
2023-03-29T02:48:08.999Z,0.47
2023-03-29T02:50:39.535Z,0.60
2023-03-29T02:53:13.266Z,0.40
2023-03-29T02:55:41.870Z,0.47
2023-03-29T02:58:08.658Z,0.40
2023-03-29T03:00:39.568Z,0.40
2023-03-29T03:03:08.095Z,0.30
2023-03-29T03:05:36.122Z,0.40
2023-03-29T03:08:04.663Z,0.40
2023-03-29T03:10:33.196Z,0.52
2023-03-29T03:13:00.426Z,0.43
2023-03-29T03:15:31.082Z,0.30
2023-03-29T03:17:58.010Z,0.40
2023-03-29T03:20:24.898Z,0.35
2023-03-29T03:22:51.881Z,0.28
2023-03-29T03:25:21.175Z,0.40
2023-03-29T03:27:50.409Z,0.50
2023-03-29T03:30:20.838Z,0.60
2023-03-29T03:33:13.382Z,0.32
2023-03-29T03:36:04.628Z,0.30
2023-03-29T03:38:36.045Z,0.45
2023-03-29T03:41:04.830Z,0.38
2023-03-29T03:43:34.125Z,0.40
2023-03-29T03:46:01.632Z,0.30
2023-03-29T03:48:29.547Z,0.38
2023-03-29T03:51:20.144Z,0.40
2023-03-29T03:53:47.343Z,0.47
2023-03-29T03:56:14.229Z,0.40
2023-03-29T03:59:07.364Z,0.30
2023-03-29T04:01:53.728Z,0.50
2023-03-29T04:04:23.535Z,0.30
2023-03-29T04:07:17.760Z,0.20
2023-03-29T04:10:04.308Z,0.30
2023-03-29T04:12:30.983Z,0.30
2023-03-29T04:14:58.082Z,0.30
2023-03-29T04:17:27.194Z,0.30
2023-03-29T04:20:12.792Z,0.20
2023-03-29T04:22:41.011Z,0.32
2023-03-29T04:25:08.303Z,0.30
2023-03-29T04:27:47.539Z,0.28
2023-03-29T04:30:25.198Z,0.50
2023-03-29T04:33:08.829Z,0.30
2023-03-29T04:35:37.089Z,0.30
2023-03-29T04:38:04.516Z,0.63
2023-03-29T04:40:31.854Z,0.32
2023-03-29T04:43:31.239Z,0.52
2023-03-29T04:46:09.934Z,0.30
2023-03-29T04:48:50.655Z,0.38
2023-03-29T04:51:22.383Z,0.30
2023-03-29T04:53:52.206Z,0.30
2023-03-29T04:56:18.870Z,0.40
2023-03-29T04:59:05.601Z,0.32
2023-03-29T05:01:32.772Z,0.40
2023-03-29T05:03:59.377Z,0.40
2023-03-29T05:06:37.113Z,0.93
2023-03-29T05:09:08.846Z,0.68
2023-03-29T05:11:46.303Z,0.90
2023-03-29T05:14:13.732Z,0.93
2023-03-29T05:16:44.132Z,0.50
2023-03-29T05:19:11.639Z,0.25
2023-03-29T05:21:43.686Z,0.40
2023-03-29T05:24:14.451Z,0.20
2023-03-29T05:26:58.626Z,0.30
2023-03-29T05:29:28.052Z,0.40
2023-03-29T05:32:07.148Z,0.40
2023-03-29T05:34:34.310Z,0.38
2023-03-29T05:37:02.237Z,0.35
2023-03-29T05:39:37.855Z,0.30
2023-03-29T05:42:05.911Z,0.30
2023-03-29T05:44:43.322Z,0.50
2023-03-29T05:47:16.769Z,0.55
2023-03-29T05:49:44.484Z,0.40
2023-03-29T05:52:14.596Z,0.40
2023-03-29T05:54:42.204Z,0.40
2023-03-29T05:57:09.932Z,0.45
2023-03-29T05:59:37.165Z,0.73
2023-03-29T06:02:05.234Z,0.50
2023-03-29T06:04:35.825Z,0.28
2023-03-29T06:07:23.592Z,0.52
2023-03-29T06:10:10.828Z,0.30
2023-03-29T06:12:39.882Z,0.45
2023-03-29T06:15:07.187Z,0.28
2023-03-29T06:17:54.069Z,0.30
2023-03-29T06:20:21.784Z,0.50
2023-03-29T06:22:53.823Z,0.70
2023-03-29T06:25:20.472Z,0.20
2023-03-29T06:27:49.564Z,0.60
2023-03-29T06:30:19.245Z,0.52
2023-03-29T06:32:50.794Z,0.50
2023-03-29T06:35:37.231Z,0.47
2023-03-29T06:38:08.133Z,0.60
2023-03-29T06:41:02.457Z,0.32
2023-03-29T06:43:39.022Z,0.57
2023-03-29T06:46:11.923Z,0.40
2023-03-29T06:48:53.320Z,0.30
2023-03-29T06:51:23.227Z,0.40
2023-03-29T06:53:50.349Z,0.50
2023-03-29T06:56:17.581Z,0.60
2023-03-29T06:59:08.505Z,0.40
2023-03-29T07:01:47.232Z,0.50
2023-03-29T07:04:22.502Z,0.40
2023-03-29T07:07:19.810Z,0.25
2023-03-29T07:09:54.030Z,0.30
2023-03-29T07:12:41.071Z,0.43
2023-03-29T07:15:09.585Z,0.60
2023-03-29T07:17:59.919Z,0.40
2023-03-29T07:20:27.289Z,0.35
2023-03-29T07:23:06.558Z,0.45
2023-03-29T07:25:33.934Z,0.30
2023-03-29T07:28:00.810Z,0.30
2023-03-29T07:30:32.133Z,0.40
2023-03-29T07:33:29.428Z,0.57
2023-03-29T07:36:00.908Z,0.30
2023-03-29T07:38:28.105Z,0.35
2023-03-29T07:41:04.190Z,0.52
2023-03-29T07:43:42.324Z,0.38
2023-03-29T07:46:11.842Z,0.32
2023-03-29T07:48:39.264Z,0.70
2023-03-29T07:51:08.209Z,0.22
2023-03-29T07:53:43.039Z,0.43
2023-03-29T07:56:27.869Z,0.82
2023-03-29T07:59:17.792Z,0.57
2023-03-29T08:01:50.308Z,0.77
2023-03-29T08:04:28.621Z,0.60
2023-03-29T08:07:17.687Z,0.50
2023-03-29T08:10:19.809Z,0.55
2023-03-29T08:12:59.206Z,0.55
2023-03-29T08:15:46.221Z,0.82
2023-03-29T08:20:50.894Z,0.50
2023-03-29T08:23:17.500Z,0.68
2023-03-29T08:26:04.538Z,0.60
2023-03-29T08:28:31.312Z,0.43
2023-03-29T08:30:57.886Z,0.80
2023-03-29T08:33:24.745Z,0.47
2023-03-29T08:36:02.013Z,0.50
2023-03-29T08:38:32.349Z,0.38
2023-03-29T08:40:59.010Z,0.40
2023-03-29T08:43:44.272Z,0.50
2023-03-29T08:46:35.956Z,0.35
2023-03-29T08:49:19.346Z,0.50
2023-03-29T08:51:49.881Z,0.40
2023-03-29T08:54:45.900Z,0.40
2023-03-29T08:57:40.394Z,0.45
2023-03-29T09:00:20.930Z,1.17
2023-03-29T09:02:51.912Z,1.02
2023-03-29T09:05:26.794Z,2.63
2023-03-29T09:08:16.372Z,1.98
2023-03-29T09:10:54.011Z,0.50
2023-03-29T09:13:42.601Z,0.52
2023-03-29T09:16:38.122Z,0.57
2023-03-29T09:19:26.710Z,0.63
2023-03-29T09:22:14.008Z,0.60
2023-03-29T09:24:47.119Z,0.80
2023-03-29T09:27:28.027Z,0.88
2023-03-29T09:30:25.721Z,0.70
2023-03-29T09:33:08.153Z,0.32
2023-03-29T09:36:07.960Z,0.63
2023-03-29T09:38:42.396Z,0.28
2023-03-29T09:41:41.673Z,0.57
2023-03-29T09:44:28.134Z,0.35
2023-03-29T09:47:08.640Z,0.50
2023-03-29T09:49:41.753Z,0.40
2023-03-29T09:52:14.330Z,1.50
2023-03-29T09:54:46.592Z,1.45
2023-03-29T09:57:40.249Z,0.80
2023-03-29T10:00:09.525Z,1.00
2023-03-29T10:02:40.623Z,0.57
2023-03-29T10:05:16.113Z,0.93
2023-03-29T10:07:58.971Z,0.52
2023-03-29T10:10:35.309Z,0.60
2023-03-29T10:13:12.300Z,0.70
2023-03-29T10:15:38.897Z,0.68
2023-03-29T10:18:13.587Z,0.40
2023-03-29T10:20:40.986Z,0.38
2023-03-29T10:23:09.193Z,0.40
2023-03-29T10:25:42.808Z,0.40
2023-03-29T10:28:16.183Z,0.50
2023-03-29T10:30:45.771Z,0.30
2023-03-29T10:33:18.885Z,0.35
2023-03-29T10:35:47.377Z,0.25
2023-03-29T10:38:17.609Z,0.30
2023-03-29T10:40:47.303Z,0.20
2023-03-29T10:43:17.176Z,0.40
2023-03-29T10:45:44.172Z,0.25
2023-03-29T10:48:16.058Z,0.70
2023-03-29T10:50:43.320Z,0.30
2023-03-29T10:53:20.463Z,0.40
2023-03-29T10:56:11.304Z,0.43
2023-03-29T10:58:44.098Z,0.25
2023-03-29T11:01:18.308Z,0.40
2023-03-29T11:04:10.331Z,0.30
2023-03-29T11:06:47.402Z,0.55
2023-03-29T11:09:35.415Z,0.20
2023-03-29T11:12:16.438Z,0.57
2023-03-29T11:14:52.745Z,0.20
2023-03-29T11:17:38.337Z,0.38
2023-03-29T11:20:19.497Z,0.40
2023-03-29T11:22:57.998Z,0.30
2023-03-29T11:25:35.613Z,0.63
2023-03-29T11:28:29.391Z,0.32
2023-03-29T11:31:40.704Z,0.25
2023-03-29T11:34:25.542Z,0.30
2023-03-29T11:37:06.131Z,0.40
2023-03-29T11:39:52.948Z,0.57
2023-03-29T11:42:24.748Z,0.60
2023-03-29T11:44:55.766Z,0.40
2023-03-29T11:47:27.736Z,0.20
2023-03-29T11:50:00.396Z,0.30
2023-03-29T11:52:32.891Z,0.52
2023-03-29T11:55:12.088Z,0.40
2023-03-29T11:57:53.925Z,0.40
2023-03-29T12:00:22.769Z,0.38
2023-03-29T12:03:02.112Z,0.47
2023-03-29T12:05:34.679Z,0.50
2023-03-29T12:08:14.786Z,0.40
2023-03-29T12:10:47.605Z,0.22
2023-03-29T12:13:23.919Z,0.30
2023-03-29T12:16:10.314Z,0.32
2023-03-29T12:18:42.152Z,0.28
2023-03-29T12:21:19.749Z,0.40
2023-03-29T12:23:47.889Z,0.38
2023-03-29T12:26:40.604Z,0.28
2023-03-29T12:29:48.790Z,0.28
2023-03-29T12:33:01.760Z,0.38
2023-03-29T12:35:54.106Z,0.38
2023-03-29T12:38:45.134Z,0.30
2023-03-29T12:41:51.873Z,0.20
2023-03-29T12:44:50.555Z,0.25
2023-03-29T12:47:32.630Z,0.45
2023-03-29T12:50:01.392Z,0.20
2023-03-29T12:52:33.492Z,0.20
2023-03-29T12:55:17.040Z,0.50
2023-03-29T12:58:09.619Z,0.10
2023-03-29T13:00:36.615Z,0.13
2023-03-29T13:03:19.816Z,0.40
2023-03-29T13:05:47.438Z,0.40
2023-03-29T13:08:27.931Z,0.40
2023-03-29T13:10:56.443Z,0.30
2023-03-29T13:13:40.895Z,1.00
2023-03-29T13:16:14.203Z,0.30
2023-03-29T13:19:09.883Z,0.57
2023-03-29T13:21:48.709Z,0.30
2023-03-29T13:24:39.090Z,0.25
2023-03-29T13:27:14.942Z,0.50
2023-03-29T13:30:12.899Z,0.52
2023-03-29T13:32:49.734Z,0.55
2023-03-29T13:35:40.352Z,0.45
2023-03-29T13:38:10.437Z,0.50
2023-03-29T13:40:39.921Z,0.43
2023-03-29T13:43:21.740Z,0.38
2023-03-29T13:46:04.103Z,0.40
2023-03-29T13:48:46.788Z,0.50
2023-03-29T13:51:13.412Z,0.30
2023-03-29T13:54:06.093Z,1.02
2023-03-29T13:56:40.069Z,0.45
2023-03-29T13:59:20.730Z,0.43
2023-03-29T14:01:57.296Z,0.40
2023-03-29T14:04:27.516Z,0.40
2023-03-29T14:06:59.440Z,0.60
2023-03-29T14:09:30.968Z,0.52
2023-03-29T14:12:01.278Z,0.70
2023-03-29T14:14:31.554Z,0.52
2023-03-29T14:17:00.563Z,0.65
2023-03-29T14:19:36.497Z,0.75
2023-03-29T14:22:09.251Z,0.50
2023-03-29T14:24:40.969Z,0.60
2023-03-29T14:27:10.295Z,0.82
2023-03-29T14:29:37.361Z,0.50
2023-03-29T14:32:18.272Z,0.52
2023-03-29T14:34:49.083Z,0.45
2023-03-29T14:37:27.664Z,0.50
2023-03-29T14:39:54.937Z,1.15
2023-03-29T14:42:26.708Z,0.90
2023-03-29T14:45:01.909Z,0.60
2023-03-29T14:47:31.225Z,0.57
2023-03-29T14:50:00.956Z,0.50
2023-03-29T14:52:29.345Z,0.20
2023-03-29T14:54:59.262Z,0.40
2023-03-29T14:57:28.970Z,0.70
2023-03-29T15:00:00.376Z,0.38
2023-03-29T15:02:32.619Z,0.35
2023-03-29T15:05:05.319Z,0.20
2023-03-29T15:07:35.281Z,0.40
2023-03-29T15:10:05.352Z,0.40
2023-03-29T15:12:33.530Z,0.43
2023-03-29T15:15:02.639Z,0.47
2023-03-29T15:17:50.941Z,0.80
2023-03-29T15:20:29.061Z,0.30
2023-03-29T15:23:07.685Z,0.40
2023-03-29T15:25:37.445Z,0.47
2023-03-29T15:28:05.020Z,0.50
2023-03-29T15:30:39.588Z,0.73
2023-03-29T15:33:15.262Z,0.93
2023-03-29T15:35:43.993Z,0.70
2023-03-29T15:38:13.026Z,0.80
2023-03-29T15:40:40.075Z,2.25
2023-03-29T15:43:07.595Z,1.40
2023-03-29T15:45:34.683Z,0.50
2023-03-29T15:48:04.802Z,0.40
2023-03-29T15:50:32.620Z,0.80
2023-03-29T15:53:05.399Z,1.13
2023-03-29T15:55:44.842Z,1.10
2023-03-29T15:58:15.346Z,1.37
2023-03-29T16:00:44.489Z,1.17
2023-03-29T16:03:18.090Z,1.13
2023-03-29T16:05:46.275Z,0.63
2023-03-29T16:08:13.752Z,0.80
2023-03-29T16:10:43.872Z,1.88
2023-03-29T16:13:14.032Z,1.30
2023-03-29T16:15:42.383Z,1.50
2023-03-29T16:18:09.366Z,1.00
2023-03-29T16:20:36.200Z,0.90
2023-03-29T16:23:08.674Z,0.90
2023-03-29T16:25:38.318Z,1.30
2023-03-29T16:28:05.623Z,2.08
2023-03-29T16:30:32.750Z,2.80
2023-03-29T16:32:59.570Z,1.67
2023-03-29T16:35:32.115Z,1.55
2023-03-29T16:37:59.157Z,1.75
2023-03-29T16:40:26.103Z,1.80
2023-03-29T16:42:52.835Z,1.27
2023-03-29T16:45:19.726Z,1.13
2023-03-29T16:47:47.081Z,1.67
2023-03-29T16:50:16.368Z,5.40
2023-03-29T16:52:43.413Z,6.00
2023-03-29T16:55:19.077Z,3.80
2023-03-29T16:57:55.493Z,4.13
2023-03-29T17:00:22.243Z,2.72
2023-03-29T17:02:52.605Z,3.40
2023-03-29T17:05:19.474Z,2.10
2023-03-29T17:07:47.053Z,2.55
2023-03-29T17:10:14.418Z,1.85
2023-03-29T17:12:41.253Z,2.30
2023-03-29T17:15:09.298Z,2.03
2023-03-29T17:17:37.492Z,3.25
2023-03-29T17:20:08.501Z,2.20
2023-03-29T17:22:35.843Z,2.33
2023-03-29T17:25:03.845Z,2.05
2023-03-29T17:27:30.588Z,2.10
2023-03-29T17:29:57.278Z,2.72
2023-03-29T17:32:23.945Z,3.92
2023-03-29T17:34:51.348Z,3.00
2023-03-29T17:37:18.392Z,2.63
2023-03-29T17:39:46.020Z,1.75
2023-03-29T17:42:12.885Z,3.22
2023-03-29T17:44:39.447Z,4.43
2023-03-29T17:47:06.029Z,3.55
2023-03-29T17:49:32.886Z,2.80
2023-03-29T17:51:59.621Z,2.28
2023-03-29T17:54:27.100Z,2.35
2023-03-29T17:56:53.695Z,2.58
2023-03-29T17:59:20.355Z,2.10
2023-03-29T18:01:47.183Z,1.50
2023-03-29T18:04:13.751Z,1.65
2023-03-29T18:06:40.596Z,2.47
2023-03-29T18:09:07.609Z,2.67
2023-03-29T18:11:36.545Z,2.10
2023-03-29T18:14:04.818Z,1.80
2023-03-29T18:16:31.776Z,2.10
2023-03-29T18:18:58.613Z,1.35
2023-03-29T18:21:26.274Z,1.73
2023-03-29T18:23:55.516Z,1.70
2023-03-29T18:26:23.473Z,2.47
2023-03-29T18:28:51.010Z,2.50
2023-03-29T18:31:19.615Z,2.97
2023-03-29T18:33:46.976Z,2.58
2023-03-29T18:36:14.488Z,2.45
2023-03-29T18:38:43.395Z,2.20
2023-03-29T18:41:12.471Z,2.10
2023-03-29T18:43:40.751Z,2.65
2023-03-29T18:46:08.286Z,3.10
2023-03-29T18:48:42.129Z,4.05
2023-03-29T18:51:11.244Z,3.00
2023-03-29T18:53:39.179Z,3.20
2023-03-29T18:56:07.974Z,2.90
2023-03-29T18:58:35.001Z,2.00
2023-03-29T19:01:04.472Z,2.00
2023-03-29T19:03:32.138Z,2.45
2023-03-29T19:05:58.997Z,2.53
2023-03-29T19:08:26.314Z,2.83
2023-03-29T19:10:53.441Z,2.30
2023-03-29T19:13:20.000Z,2.50
2023-03-29T19:15:47.486Z,1.80
2023-03-29T19:18:14.424Z,1.20
2023-03-29T19:20:41.284Z,1.40
2023-03-29T19:23:08.173Z,1.40
2023-03-29T19:25:35.274Z,1.00
2023-03-29T19:28:03.685Z,1.00
2023-03-29T19:30:31.419Z,0.93
2023-03-29T19:32:58.047Z,0.80
2023-03-29T19:35:24.854Z,1.40
2023-03-29T19:37:51.558Z,1.10
2023-03-29T19:40:18.214Z,2.30
2023-03-29T19:42:44.745Z,1.92
2023-03-29T19:45:11.848Z,1.63
2023-03-29T19:47:38.850Z,2.00
2023-03-29T19:50:07.139Z,1.25
2023-03-29T19:52:33.914Z,0.98
2023-03-29T19:55:00.806Z,1.10
2023-03-29T19:57:28.274Z,0.80
2023-03-29T19:59:55.051Z,1.00
2023-03-29T20:02:21.608Z,1.25
2023-03-29T20:04:48.647Z,1.02
2023-03-29T20:07:15.407Z,1.00
2023-03-29T20:09:45.109Z,1.05
2023-03-29T20:12:12.044Z,1.08
2023-03-29T20:14:40.435Z,2.55
2023-03-29T20:17:07.342Z,2.13
2023-03-29T20:19:36.559Z,1.20
2023-03-29T20:22:04.506Z,1.40
2023-03-29T20:24:32.588Z,2.00
2023-03-29T20:26:59.452Z,0.93
2023-03-29T20:29:26.527Z,1.02
2023-03-29T20:31:53.248Z,0.90
2023-03-29T20:34:20.063Z,0.80
2023-03-29T20:36:47.029Z,0.73
2023-03-29T20:39:17.594Z,1.40
2023-03-29T20:41:47.594Z,0.85
2023-03-29T20:44:16.876Z,0.93
2023-03-29T20:46:54.635Z,1.60
2023-03-29T20:49:26.317Z,1.67
2023-03-29T20:51:58.699Z,1.25
2023-03-29T20:54:25.917Z,1.33
2023-03-29T20:56:54.702Z,0.70
2023-03-29T20:59:22.758Z,1.45
2023-03-29T21:01:50.385Z,0.95
2023-03-29T21:04:17.704Z,0.98
2023-03-29T21:06:45.744Z,1.05
2023-03-29T21:09:13.620Z,1.02
2023-03-29T21:11:40.876Z,1.02
2023-03-29T21:14:09.426Z,1.02
2023-03-29T21:16:36.178Z,0.98
2023-03-29T21:19:02.849Z,1.00
2023-03-29T21:21:29.696Z,0.80
2023-03-29T21:23:56.376Z,1.45
2023-03-29T21:26:23.549Z,0.82
2023-03-29T21:28:50.336Z,1.38
2023-03-29T21:31:17.084Z,0.80
2023-03-29T21:33:43.715Z,1.35
2023-03-29T21:36:10.870Z,1.00
2023-03-29T21:38:37.433Z,0.85
2023-03-29T21:41:04.321Z,1.40
2023-03-29T21:43:31.105Z,1.60
2023-03-29T21:45:57.920Z,1.00
2023-03-29T21:48:24.980Z,0.95
2023-03-29T21:50:51.672Z,0.60
2023-03-29T21:53:18.433Z,0.68
2023-03-29T21:55:48.776Z,0.63
2023-03-29T21:58:15.968Z,0.88
2023-03-29T22:00:42.761Z,0.85
2023-03-29T22:03:09.647Z,0.70
2023-03-29T22:05:36.721Z,0.82
2023-03-29T22:08:04.980Z,0.60
2023-03-29T22:10:33.108Z,1.67
2023-03-29T22:13:00.608Z,0.75
2023-03-29T22:15:29.452Z,1.02
2023-03-29T22:17:57.815Z,0.80
2023-03-29T22:20:25.810Z,1.83
2023-03-29T22:22:52.606Z,1.70
2023-03-29T22:25:20.471Z,2.60
2023-03-29T22:27:48.765Z,3.20
2023-03-29T22:30:17.443Z,1.75
2023-03-29T22:32:44.118Z,1.10
2023-03-29T22:35:10.816Z,0.88
2023-03-29T22:37:44.002Z,0.77
2023-03-29T22:40:12.082Z,0.60
2023-03-29T22:42:39.038Z,0.73
2023-03-29T22:45:06.536Z,0.70
2023-03-29T22:47:34.069Z,1.27
2023-03-29T22:50:01.309Z,1.05
2023-03-29T22:52:27.893Z,1.10
2023-03-29T22:54:54.392Z,1.10
2023-03-29T22:57:21.160Z,1.60
2023-03-29T22:59:48.163Z,0.88
2023-03-29T23:02:14.690Z,0.82
2023-03-29T23:04:42.235Z,1.58
2023-03-29T23:07:09.222Z,0.82
2023-03-29T23:09:35.846Z,0.75
2023-03-29T23:12:02.614Z,0.85
2023-03-29T23:14:29.573Z,1.38
2023-03-29T23:16:59.676Z,0.82
2023-03-29T23:19:26.367Z,0.90
2023-03-29T23:21:52.941Z,0.57
2023-03-29T23:24:19.443Z,1.40
2023-03-29T23:26:48.944Z,0.60
2023-03-29T23:29:15.547Z,0.70
2023-03-29T23:31:42.193Z,1.00
2023-03-29T23:34:09.369Z,0.70
2023-03-29T23:36:36.117Z,1.05
2023-03-29T23:39:02.726Z,0.70
2023-03-29T23:41:30.830Z,0.70
2023-03-29T23:43:58.000Z,0.68
2023-03-29T23:46:25.191Z,0.70
2023-03-29T23:48:52.004Z,1.02
2023-03-29T23:51:22.713Z,0.90
2023-03-29T23:53:50.086Z,0.85
2023-03-29T23:56:16.796Z,2.53
2023-03-29T23:58:44.349Z,0.88
